Time;durP1;ratioP1;P1;durP2;ratioP2;P2;SDS_P1;SDS_P2;PMS_P1;PMS_P2;Temp;Humidity;BMP_temperature;BMP_pressure;BME280_temperature;BME280_humidity;BME280_pressure;Samples;Min_cycle;Max_cycle;Signal;HPM_P1;HPM_P2
2023/04/04 00:01:52;;;;;;;3.50;2.60;;;;;;;0.69;72.70;151546.78;5072685;28;20808;-78
2023/04/04 00:04:18;;;;;;;4.03;3.00;;;;;;;0.66;72.77;151539.13;5073317;28;20458;-77
2023/04/04 00:06:46;;;;;;;3.43;2.40;;;;;;;0.74;72.39;151559.66;5071522;28;20529;-77
2023/04/04 00:09:13;;;;;;;4.50;2.90;;;;;;;0.77;70.86;151566.09;5072970;28;20575;-77
2023/04/04 00:11:42;;;;;;;3.37;2.10;;;;;;;0.73;71.07;151557.09;5054600;28;20442;-77
2023/04/04 00:14:08;;;;;;;3.83;2.53;;;;;;;0.58;73.62;151519.81;5073344;28;20448;-77
2023/04/04 00:16:36;;;;;;;2.87;2.50;;;;;;;0.59;72.25;151522.41;5051639;28;20442;-77
2023/04/04 00:19:02;;;;;;;3.33;2.60;;;;;;;0.55;72.59;151510.88;5069279;28;20519;-77
2023/04/04 00:21:29;;;;;;;6.37;2.93;;;;;;;0.60;72.60;151525.00;5054754;28;20518;-77
2023/04/04 00:23:57;;;;;;;4.50;2.80;;;;;;;0.56;72.59;151513.41;5072452;28;20469;-77
2023/04/04 00:26:25;;;;;;;7.27;3.50;;;;;;;0.50;71.28;151499.28;5050958;28;20541;-77
2023/04/04 00:28:53;;;;;;;3.67;3.10;;;;;;;0.49;72.74;151495.44;5067798;28;20826;-77
2023/04/04 00:31:19;;;;;;;3.27;2.80;;;;;;;0.46;73.91;151489.03;5037589;28;20431;-78
2023/04/04 00:33:46;;;;;;;4.67;2.83;;;;;;;0.43;71.93;151481.31;5052435;28;20855;-78
2023/04/04 00:36:13;;;;;;;3.33;2.90;;;;;;;0.40;71.62;151473.63;5033092;28;20483;-78
2023/04/04 00:38:40;;;;;;;3.67;3.33;;;;;;;0.37;72.77;151464.66;5037618;28;20449;-77
2023/04/04 00:41:06;;;;;;;3.30;3.00;;;;;;;0.34;72.22;151456.97;5060597;28;21024;-75
2023/04/04 00:43:35;;;;;;;3.60;2.70;;;;;;;0.42;72.12;151477.50;5054547;28;20529;-77
2023/04/04 00:46:03;;;;;;;4.30;3.30;;;;;;;0.52;70.15;151504.47;5054343;28;20982;-77
2023/04/04 00:48:30;;;;;;;7.60;2.70;;;;;;;0.52;69.65;151503.16;5037347;28;20482;-77
2023/04/04 00:50:56;;;;;;;4.30;2.73;;;;;;;0.49;69.65;151496.75;5038649;28;20467;-77
2023/04/04 00:53:23;;;;;;;3.33;2.60;;;;;;;0.43;70.10;151480.03;5052890;28;20535;-77
2023/04/04 00:55:50;;;;;;;5.80;4.20;;;;;;;0.44;70.34;151483.91;5071539;28;20940;-77
2023/04/04 00:58:18;;;;;;;4.00;3.00;;;;;;;0.42;69.33;151478.78;5043739;28;20450;-77
2023/04/04 01:00:45;;;;;;;4.00;3.03;;;;;;;0.47;69.74;151491.63;5071834;28;20504;-77
2023/04/04 01:03:13;;;;;;;4.13;2.77;;;;;;;0.42;69.94;151478.78;5042991;28;20452;-77
2023/04/04 01:05:41;;;;;;;3.03;2.73;;;;;;;0.40;70.74;151473.63;5048952;28;20930;-77
2023/04/04 01:08:08;;;;;;;3.20;2.50;;;;;;;0.39;70.77;151469.78;5033418;28;20570;-77
2023/04/04 01:10:35;;;;;;;5.87;3.40;;;;;;;0.33;71.19;151455.66;5029885;28;20855;-77
2023/04/04 01:13:01;;;;;;;3.33;2.50;;;;;;;0.32;69.76;151451.84;5037063;28;20537;-76
2023/04/04 01:15:29;;;;;;;3.03;2.60;;;;;;;0.34;69.77;151456.97;5070772;28;20444;-76
2023/04/04 01:17:57;;;;;;;3.87;2.60;;;;;;;0.31;69.96;151450.53;5053910;28;20529;-77
2023/04/04 01:20:26;;;;;;;4.37;2.93;;;;;;;0.25;70.23;151433.84;5067634;28;20515;-76
2023/04/04 01:22:57;;;;;;;3.57;3.27;;;;;;;0.20;69.95;151421.00;5046104;28;20451;-77
2023/04/04 01:25:29;;;;;;;4.27;3.27;;;;;;;0.23;70.77;151428.72;5035235;28;20461;-77
2023/04/04 01:27:59;;;;;;;2.93;2.47;;;;;;;0.11;71.32;151399.16;5025720;28;20470;-77
2023/04/04 01:30:28;;;;;;;5.93;2.93;;;;;;;0.19;70.75;151418.41;5025401;28;20446;-77
2023/04/04 01:32:59;;;;;;;5.10;2.90;;;;;;;0.09;70.44;151392.75;5051272;28;20446;-77
2023/04/04 01:35:31;;;;;;;3.87;3.17;;;;;;;0.07;71.83;151388.94;5020617;28;20478;-76
2023/04/04 01:38:07;;;;;;;3.20;2.80;;;;;;;0.12;71.96;151400.47;5033393;28;20541;-76
2023/04/04 01:40:36;;;;;;;3.43;2.57;;;;;;;0.13;71.76;151403.06;5071402;28;20446;-76
2023/04/04 01:43:03;;;;;;;4.40;3.03;;;;;;;0.09;70.99;151392.75;5053537;28;20532;-76
2023/04/04 01:45:32;;;;;;;6.53;3.33;;;;;;;0.06;71.52;151385.06;5053696;28;20528;-77
2023/04/04 01:48:01;;;;;;;3.27;2.27;;;;;;;0.05;71.74;151382.50;5053474;28;20466;-76
2023/04/04 01:50:29;;;;;;;4.80;3.43;;;;;;;0.02;71.92;151376.09;5037023;28;20446;-77
2023/04/04 01:52:56;;;;;;;3.10;2.73;;;;;;;-0.03;72.53;151364.53;5037858;28;20455;-76
2023/04/04 01:55:22;;;;;;;4.03;2.90;;;;;;;-0.05;73.07;151359.41;5068601;28;20947;-77
2023/04/04 01:57:51;;;;;;;3.83;2.80;;;;;;;-0.07;71.99;151354.28;5036284;28;20450;-77
2023/04/04 02:00:18;;;;;;;4.30;2.73;;;;;;;-0.12;72.43;151341.44;5036219;28;20486;-77
2023/04/04 02:02:44;;;;;;;2.83;2.50;;;;;;;-0.11;72.49;151344.00;5052799;28;20438;-77
2023/04/04 02:05:12;;;;;;;6.20;2.90;;;;;;;-0.17;72.85;151328.63;5053146;28;20438;-77
2023/04/04 02:07:38;;;;;;;3.23;2.93;;;;;;;-0.21;73.02;151318.34;5031314;28;20443;-76
2023/04/04 02:10:13;;;;;;;3.10;2.80;;;;;;;-0.26;73.93;151304.22;5033802;28;20446;-77
2023/04/04 02:12:39;;;;;;;4.40;3.10;;;;;;;-0.28;74.47;151300.41;5040615;28;20451;-77
2023/04/04 02:15:09;;;;;;;3.57;2.50;;;;;;;-0.26;74.05;151305.50;5033189;28;20438;-76
2023/04/04 02:17:36;;;;;;;4.30;2.63;;;;;;;-0.31;74.61;151292.69;5037737;28;20529;-76
2023/04/04 02:20:03;;;;;;;4.30;3.67;;;;;;;-0.33;75.53;151287.56;5033573;28;20427;-76
2023/04/04 02:22:29;;;;;;;2.60;2.37;;;;;;;-0.33;75.84;151286.28;5023470;28;20431;-77
2023/04/04 02:24:56;;;;;;;3.80;2.63;;;;;;;-0.40;75.40;151268.34;5036787;28;20533;-77
2023/04/04 02:27:23;;;;;;;4.00;3.33;;;;;;;-0.43;75.67;151260.63;5064624;28;20440;-76
2023/04/04 02:29:50;;;;;;;2.67;2.47;;;;;;;-0.45;75.55;151256.75;5048409;28;20814;-76
2023/04/04 02:32:18;;;;;;;3.10;2.80;;;;;;;-0.46;75.76;151252.94;5052331;28;20433;-76
2023/04/04 02:34:44;;;;;;;3.60;2.60;;;;;;;-0.51;76.11;151240.09;5056390;28;20477;-77
2023/04/04 02:37:11;;;;;;;3.80;2.80;;;;;;;-0.49;76.21;151246.53;5052308;28;20880;-77
2023/04/04 02:39:38;;;;;;;4.63;3.30;;;;;;;-0.54;76.89;151232.41;5052218;28;20858;-77
2023/04/04 02:42:05;;;;;;;4.23;2.83;;;;;;;-0.53;75.94;151236.22;5052512;28;20443;-76
2023/04/04 02:44:32;;;;;;;3.30;3.00;;;;;;;-0.51;76.57;151240.09;5059490;28;20458;-77
2023/04/04 02:46:59;;;;;;;4.43;3.00;;;;;;;-0.53;76.76;151236.22;5050465;28;20438;-76
2023/04/04 02:49:31;;;;;;;3.23;2.93;;;;;;;-0.51;76.40;151241.41;5040615;28;20556;-76
2023/04/04 02:51:58;;;;;;;3.00;2.70;;;;;;;-0.54;77.14;151232.41;5056683;28;20850;-76
2023/04/04 02:54:28;;;;;;;6.33;3.23;;;;;;;-0.57;76.76;151226.00;5040283;28;20487;-76
2023/04/04 02:56:55;;;;;;;3.57;2.67;;;;;;;-0.58;77.75;151223.41;5052297;28;20442;-77
2023/04/04 02:59:22;;;;;;;3.40;2.53;;;;;;;-0.59;76.88;151219.59;5040129;28;20482;-76
2023/04/04 03:01:48;;;;;;;4.37;3.10;;;;;;;-0.63;77.07;151210.59;5054456;28;20447;-77
2023/04/04 03:04:15;;;;;;;4.40;3.13;;;;;;;-0.68;77.59;151199.06;5046290;28;20455;-76
2023/04/04 03:06:44;;;;;;;7.43;3.17;;;;;;;-0.65;77.22;151206.75;5050110;28;20448;-76
2023/04/04 03:09:11;;;;;;;4.90;3.23;;;;;;;-0.68;76.83;151197.78;5039257;28;20569;-76
2023/04/04 03:11:37;;;;;;;3.00;2.60;;;;;;;-0.65;77.38;151206.75;5056540;28;20462;-76
2023/04/04 03:14:04;;;;;;;3.50;3.20;;;;;;;-0.67;76.91;151201.66;5074010;28;20454;-76
2023/04/04 03:16:37;;;;;;;3.70;3.27;;;;;;;-0.70;78.05;151193.94;5027274;28;20444;-76
2023/04/04 03:19:04;;;;;;;4.07;3.13;;;;;;;-0.71;77.36;151190.06;5051921;28;20944;-76
2023/04/04 03:21:30;;;;;;;4.60;3.43;;;;;;;-0.74;78.00;151182.38;5062995;28;20462;-77
2023/04/04 03:23:59;;;;;;;3.63;2.83;;;;;;;-0.78;77.62;151172.13;5063454;28;20461;-77
2023/04/04 03:26:27;;;;;;;3.90;3.00;;;;;;;-0.79;78.03;151169.56;5049698;28;20464;-76
2023/04/04 03:28:54;;;;;;;6.07;3.47;;;;;;;-0.80;77.99;151167.00;5036755;28;20557;-76
2023/04/04 03:31:23;;;;;;;3.70;2.80;;;;;;;-0.79;77.42;151169.56;5044158;28;20457;-76
2023/04/04 03:33:50;;;;;;;4.57;2.90;;;;;;;-0.76;77.23;151178.53;5049009;28;20478;-76
2023/04/04 03:36:17;;;;;;;3.57;3.27;;;;;;;-0.79;78.20;151170.84;5063285;28;20470;-77
2023/04/04 03:38:46;;;;;;;3.87;2.90;;;;;;;-0.81;78.51;151164.44;5038904;28;20446;-76
2023/04/04 03:41:15;;;;;;;4.00;3.27;;;;;;;-0.82;77.73;151161.91;5038756;28;20450;-77
2023/04/04 03:43:41;;;;;;;3.93;3.13;;;;;;;-0.80;77.35;151167.00;5055220;28;20507;-76
2023/04/04 03:46:08;;;;;;;4.73;3.43;;;;;;;-0.83;77.54;151159.31;5065013;28;20565;-76
2023/04/04 03:48:35;;;;;;;3.47;3.00;;;;;;;-0.85;78.03;151154.19;5035123;28;20877;-76
2023/04/04 03:51:04;;;;;;;3.60;2.90;;;;;;;-0.79;77.20;151170.84;5065306;28;20446;-76
2023/04/04 03:53:31;;;;;;;4.77;3.60;;;;;;;-0.81;77.92;151164.44;5083397;28;20434;-75
2023/04/04 03:55:58;;;;;;;4.30;3.53;;;;;;;-0.86;77.20;151151.63;5073361;28;20443;-76
2023/04/04 03:58:27;;;;;;;4.40;3.53;;;;;;;-0.85;76.05;151154.19;5052792;28;20609;-77
2023/04/04 04:00:54;;;;;;;4.07;3.67;;;;;;;-0.81;76.33;151164.44;5073224;28;20430;-75
2023/04/04 04:03:21;;;;;;;4.13;3.40;;;;;;;-0.83;76.85;151159.31;5049851;28;20805;-76
2023/04/04 04:05:48;;;;;;;4.80;3.67;;;;;;;-0.90;76.96;151142.63;5055172;28;20467;-76
2023/04/04 04:08:14;;;;;;;4.03;3.13;;;;;;;-0.89;77.41;151143.91;5038182;28;20443;-75
2023/04/04 04:10:41;;;;;;;3.90;3.47;;;;;;;-0.88;77.66;151147.78;5025706;28;20447;-75
2023/04/04 04:13:08;;;;;;;4.03;3.43;;;;;;;-0.89;77.35;151143.91;5066414;28;20809;-77
2023/04/04 04:15:36;;;;;;;4.90;3.57;;;;;;;-1.00;76.43;151115.69;5051174;28;20434;-76
2023/04/04 04:18:07;;;;;;;6.30;3.83;;;;;;;-0.95;75.76;151129.81;5032424;28;20859;-77
2023/04/04 04:20:34;;;;;;;4.53;3.40;;;;;;;-0.84;75.67;151158.03;5050256;28;20545;-76
2023/04/04 04:23:01;;;;;;;5.07;3.87;;;;;;;-0.81;75.83;151164.44;5027703;28;20462;-77
2023/04/04 04:25:27;;;;;;;3.60;3.13;;;;;;;-0.80;74.47;151168.31;5042113;28;20495;-76
2023/04/04 04:28:11;;;;;;;4.43;3.30;;;;;;;-0.80;74.92;151167.00;5033075;28;20878;-76
2023/04/04 04:30:39;;;;;;;4.80;4.20;;;;;;;-0.81;75.31;151164.44;5054408;28;20535;-76
2023/04/04 04:33:07;;;;;;;3.30;3.00;;;;;;;-0.82;75.18;151163.16;5036989;28;20451;-76
2023/04/04 04:35:40;;;;;;;4.27;3.87;;;;;;;-0.80;75.21;151167.00;5034402;28;20998;-77
2023/04/04 04:38:09;;;;;;;4.13;3.40;;;;;;;-0.82;75.76;151161.91;5031658;28;20447;-76
2023/04/04 04:40:36;;;;;;;5.17;3.57;;;;;;;-0.85;76.39;151155.44;5054299;28;20430;-76
2023/04/04 04:43:08;;;;;;;5.30;3.70;;;;;;;-0.87;76.15;151149.03;5053885;28;20446;-76
2023/04/04 04:45:36;;;;;;;5.90;4.10;;;;;;;-0.92;76.33;151136.22;5045671;28;20492;-76
2023/04/04 04:48:09;;;;;;;4.93;3.93;;;;;;;-0.99;76.61;151119.56;5050236;28;20442;-76
2023/04/04 04:50:44;;;;;;;3.83;3.13;;;;;;;-0.97;76.08;151123.41;5053591;28;20514;-76
2023/04/04 04:53:12;;;;;;;3.90;3.23;;;;;;;-0.96;76.46;151125.97;5053846;28;20545;-76
2023/04/04 04:55:39;;;;;;;4.30;3.03;;;;;;;-0.98;76.49;151122.09;5053647;28;20423;-76
2023/04/04 04:58:09;;;;;;;3.20;2.90;;;;;;;-0.94;75.79;151132.38;5037082;28;20861;-76
2023/04/04 05:00:37;;;;;;;4.83;3.30;;;;;;;-0.99;75.87;151118.28;5036763;28;20907;-76
2023/04/04 05:03:05;;;;;;;4.00;3.60;;;;;;;-1.00;76.06;151117.00;5038287;28;20872;-76
2023/04/04 05:05:42;;;;;;;5.70;4.13;;;;;;;-0.98;75.53;151120.88;5042362;28;20790;-77
2023/04/04 05:08:12;;;;;;;5.40;3.50;;;;;;;-0.97;74.94;151123.41;5041912;28;21003;-76
2023/04/04 05:10:49;;;;;;;5.83;3.33;;;;;;;-0.99;75.08;151119.56;5039394;28;20467;-76
2023/04/04 05:13:18;;;;;;;4.90;3.80;;;;;;;-0.97;75.19;151123.41;5039743;28;20447;-76
2023/04/04 05:15:46;;;;;;;5.73;3.90;;;;;;;-0.92;75.46;151136.22;5039159;28;20486;-76
2023/04/04 05:18:13;;;;;;;4.70;3.90;;;;;;;-0.94;75.29;151131.09;5022557;28;20459;-76
2023/04/04 05:20:42;;;;;;;4.93;3.50;;;;;;;-0.92;76.13;151136.22;5057742;28;20505;-76
2023/04/04 05:23:11;;;;;;;5.90;3.60;;;;;;;-0.85;74.85;151155.44;5040524;28;20584;-76
2023/04/04 05:25:41;;;;;;;4.73;3.53;;;;;;;-0.88;74.70;151146.50;5040479;28;20500;-76
2023/04/04 05:28:08;;;;;;;6.83;4.43;;;;;;;-0.88;75.61;151146.50;5022901;28;20451;-76
2023/04/04 05:30:37;;;;;;;6.27;4.40;;;;;;;-0.90;75.49;151142.63;5041000;28;21024;-76
2023/04/04 05:33:30;;;;;;;7.13;3.73;;;;;;;-0.81;74.66;151164.44;5036057;28;20454;-77
2023/04/04 05:36:11;;;;;;;4.90;3.93;;;;;;;-0.73;74.68;151184.94;5048230;28;20486;-76
2023/04/04 05:38:47;;;;;;;5.33;3.97;;;;;;;-0.80;74.29;151167.00;5038879;28;20458;-75
2023/04/04 05:41:15;;;;;;;4.20;3.80;;;;;;;-0.69;74.05;151195.25;5040156;28;20860;-77
2023/04/04 05:43:43;;;;;;;4.60;4.10;;;;;;;-0.72;74.88;151188.81;5041429;28;20875;-77
2023/04/04 05:46:14;;;;;;;5.77;4.47;;;;;;;-0.68;73.92;151199.06;5023709;28;20451;-77
2023/04/04 05:48:46;;;;;;;4.33;3.77;;;;;;;-0.57;73.86;151226.00;5039693;28;20545;-84
2023/04/04 05:51:15;;;;;;;5.87;4.40;;;;;;;-0.52;73.49;151237.53;5040719;28;20442;-84
2023/04/04 05:53:52;;;;;;;4.67;3.90;;;;;;;-0.37;72.81;151276.03;5022430;28;20862;-84
2023/04/04 05:56:24;;;;;;;5.33;4.20;;;;;;;-0.35;72.70;151282.44;5056930;28;20445;-85
2023/04/04 05:58:53;;;;;;;4.43;4.03;;;;;;;-0.25;72.85;151306.81;5024372;28;20459;-85
2023/04/04 06:01:20;;;;;;;3.93;3.60;;;;;;;-0.05;72.55;151359.41;5059935;28;20445;-85
2023/04/04 06:03:48;;;;;;;6.33;4.07;;;;;;;0.19;71.42;151419.72;5024822;28;20462;-85
2023/04/04 06:06:23;;;;;;;5.27;3.83;;;;;;;0.53;69.96;151507.00;5040800;28;20484;-84
2023/04/04 06:08:50;;;;;;;5.80;4.20;;;;;;;0.69;69.34;151545.53;5039092;28;20502;-85
2023/04/04 06:11:17;;;;;;;6.80;3.70;;;;;;;0.96;68.61;151614.84;5038032;28;20918;-85
2023/04/04 06:13:44;;;;;;;6.73;4.47;;;;;;;1.16;67.57;151666.25;5040489;28;21021;-84
2023/04/04 06:16:15;;;;;;;5.60;3.57;;;;;;;1.26;68.01;151690.66;5036803;28;20475;-84
2023/04/04 06:18:42;;;;;;;4.93;3.93;;;;;;;1.50;66.69;151753.63;5057781;28;20446;-84
2023/04/04 06:21:09;;;;;;;4.40;4.00;;;;;;;1.65;64.53;151790.84;5042818;28;20439;-84
2023/04/04 06:23:41;;;;;;;5.00;4.47;;;;;;;1.69;65.20;151802.47;5058520;28;20485;-84
2023/04/04 06:26:08;;;;;;;5.07;3.73;;;;;;;1.92;64.40;151860.28;5030569;28;20453;-84
2023/04/04 06:28:35;;;;;;;4.80;4.23;;;;;;;1.91;64.11;151856.44;5062319;28;20501;-84
2023/04/04 06:31:05;;;;;;;5.63;3.60;;;;;;;2.10;63.06;151906.53;5025596;28;20474;-84
2023/04/04 06:33:33;;;;;;;6.30;4.00;;;;;;;2.08;61.75;151901.41;5059600;28;20451;-83
2023/04/04 06:36:00;;;;;;;3.57;3.27;;;;;;;2.15;62.08;151919.41;5028198;28;20463;-83
2023/04/04 06:38:28;;;;;;;4.47;3.17;;;;;;;2.13;61.74;151914.25;5030775;28;20449;-84
2023/04/04 06:40:58;;;;;;;4.43;4.03;;;;;;;2.28;61.20;151952.81;5043801;28;20439;-83
2023/04/04 06:43:25;;;;;;;4.30;3.60;;;;;;;2.38;61.58;151978.53;5045634;28;20544;-83
2023/04/04 06:45:51;;;;;;;6.60;3.90;;;;;;;2.50;61.17;152006.84;5051550;28;20551;-83
2023/04/04 06:48:19;;;;;;;4.07;3.10;;;;;;;2.83;60.32;152093.00;5062094;28;20536;-83
2023/04/04 06:50:47;;;;;;;5.17;3.83;;;;;;;2.84;59.36;152095.59;5044711;28;20465;-83
2023/04/04 06:53:16;;;;;;;3.00;2.70;;;;;;;2.88;58.86;152104.59;5042796;28;20447;-83
2023/04/04 06:55:44;;;;;;;3.40;3.10;;;;;;;3.05;58.70;152148.31;5059313;28;20503;-84
2023/04/04 06:58:12;;;;;;;6.77;3.83;;;;;;;3.39;58.10;152235.81;5026144;28;20490;-83
2023/04/04 07:00:39;;;;;;;3.77;3.17;;;;;;;3.48;56.15;152259.00;5062034;28;20499;-83
2023/04/04 07:03:06;;;;;;;3.63;3.17;;;;;;;3.01;56.51;152138.06;5063483;28;20502;-83
2023/04/04 07:05:32;;;;;;;3.40;3.07;;;;;;;3.32;57.14;152217.81;5060852;28;20485;-83
2023/04/04 07:07:59;;;;;;;3.13;2.80;;;;;;;3.37;56.33;152230.69;5045799;28;20443;-83
2023/04/04 07:10:26;;;;;;;6.60;4.00;;;;;;;3.53;56.26;152270.59;5043957;28;20488;-83
2023/04/04 07:12:53;;;;;;;3.90;3.37;;;;;;;3.87;55.19;152356.81;5029677;28;20520;-83
2023/04/04 07:15:21;;;;;;;4.03;3.17;;;;;;;4.02;54.63;152395.50;5043762;28;20450;-83
2023/04/04 07:17:48;;;;;;;4.40;3.10;;;;;;;4.01;53.45;152392.91;5059923;28;20979;-83
2023/04/04 07:20:15;;;;;;;3.77;3.30;;;;;;;4.17;54.93;152434.13;5044121;28;20454;-83
2023/04/04 07:22:43;;;;;;;4.00;3.30;;;;;;;4.31;54.86;152471.44;5062173;28;20456;-82
2023/04/04 07:25:11;;;;;;;3.97;3.57;;;;;;;4.50;54.13;152519.09;5059845;28;20501;-83
2023/04/04 07:27:37;;;;;;;7.10;3.33;;;;;;;4.54;53.54;152528.13;5038997;28;20918;-83
2023/04/04 07:30:05;;;;;;;4.00;3.30;;;;;;;4.70;53.77;152569.38;5061915;28;20467;-83
2023/04/04 07:32:33;;;;;;;5.47;4.00;;;;;;;4.91;52.77;152623.50;5042207;28;20443;-83
2023/04/04 07:35:00;;;;;;;4.47;3.63;;;;;;;4.82;51.99;152601.56;5042691;28;20482;-83
2023/04/04 07:37:26;;;;;;;5.00;3.23;;;;;;;5.04;52.18;152657.00;5061270;28;20450;-82
2023/04/04 07:39:53;;;;;;;3.83;3.33;;;;;;;5.14;51.86;152681.47;5027165;28;20446;-83
2023/04/04 07:42:22;;;;;;;4.60;3.30;;;;;;;4.96;51.68;152635.06;5044936;28;20454;-83
2023/04/04 07:44:49;;;;;;;3.60;3.30;;;;;;;5.05;51.64;152658.31;5064658;28;20454;-84
2023/04/04 07:47:16;;;;;;;5.07;2.57;;;;;;;5.07;50.84;152664.75;5029001;28;20863;-83
2023/04/04 07:49:44;;;;;;;3.03;2.43;;;;;;;4.92;50.60;152627.34;5045610;28;20973;-84
2023/04/04 07:52:11;;;;;;;3.80;2.93;;;;;;;4.94;50.08;152631.22;5043729;28;20812;-84
2023/04/04 07:54:39;;;;;;;3.37;3.07;;;;;;;4.87;51.80;152614.47;5044235;28;20487;-84
2023/04/04 07:57:08;;;;;;;4.40;3.07;;;;;;;4.90;53.67;152620.91;5061109;28;20809;-84
2023/04/04 07:59:35;;;;;;;4.00;3.47;;;;;;;5.18;50.91;152691.81;5043036;28;20869;-84
2023/04/04 08:02:02;;;;;;;5.00;3.60;;;;;;;5.24;50.11;152707.28;5057387;28;20938;-84
2023/04/04 08:04:28;;;;;;;3.10;2.67;;;;;;;5.16;49.70;152686.66;5039804;28;20462;-84
2023/04/04 08:06:57;;;;;;;3.90;3.20;;;;;;;5.11;51.02;152673.78;5041951;28;20481;-84
2023/04/04 08:09:23;;;;;;;2.80;2.57;;;;;;;4.93;50.78;152629.94;5058073;28;20576;-84
2023/04/04 08:11:50;;;;;;;3.90;3.50;;;;;;;4.79;50.08;152593.84;5043299;28;20865;-84
2023/04/04 08:14:17;;;;;;;4.90;3.20;;;;;;;4.64;51.83;152553.91;5063831;28;20451;-84
2023/04/04 09:16:13;;;;;;;2.47;2.20;;;;;;;4.74;49.53;152580.97;5094944;28;20472;-77
2023/04/04 09:18:40;;;;;;;4.57;3.53;;;;;;;4.74;50.30;152579.66;5081763;28;20461;-77
2023/04/04 09:21:11;;;;;;;5.00;4.20;;;;;;;4.80;49.96;152595.13;5074199;28;20477;-77
2023/04/04 09:23:38;;;;;;;4.40;4.00;;;;;;;4.96;51.15;152636.38;5059234;28;20449;-77
2023/04/04 09:26:06;;;;;;;4.73;3.03;;;;;;;5.02;49.20;152650.56;5076383;28;20715;-77
2023/04/04 09:28:33;;;;;;;4.67;3.30;;;;;;;5.03;50.31;152654.41;5076044;28;21083;-77
2023/04/04 09:31:04;;;;;;;4.70;3.50;;;;;;;4.90;50.07;152622.19;5077480;28;20483;-77
2023/04/04 09:33:33;;;;;;;5.00;3.30;;;;;;;4.89;49.56;152619.66;5095250;28;20457;-77
2023/04/04 09:36:02;;;;;;;4.00;3.50;;;;;;;4.56;50.48;152534.59;5077724;28;20475;-77
2023/04/04 09:38:30;;;;;;;4.13;3.60;;;;;;;4.47;50.65;152511.41;5071409;28;20560;-76
2023/04/04 09:40:57;;;;;;;4.80;3.97;;;;;;;4.38;50.70;152486.91;5072688;28;20480;-77
2023/04/04 09:43:25;;;;;;;4.50;3.80;;;;;;;4.65;51.79;152556.50;5059476;28;21192;-77
2023/04/04 09:45:52;;;;;;;4.40;3.77;;;;;;;4.78;52.51;152591.28;5063569;28;20536;-77
2023/04/04 09:48:26;;;;;;;4.07;3.67;;;;;;;5.00;50.96;152645.41;5060758;28;20837;-77
2023/04/04 09:50:54;;;;;;;4.17;3.73;;;;;;;5.01;50.17;152647.97;5093215;28;20467;-76
2023/04/04 09:53:21;;;;;;;4.47;4.00;;;;;;;5.17;49.15;152689.22;5093714;28;20913;-75
2023/04/04 09:55:52;;;;;;;4.47;3.57;;;;;;;4.96;50.75;152635.06;5079128;28;20449;-76
2023/04/04 09:58:20;;;;;;;4.33;3.73;;;;;;;4.75;50.37;152583.56;5094322;28;20806;-76
2023/04/04 10:00:47;;;;;;;4.80;4.27;;;;;;;4.63;50.22;152551.34;5067600;28;20444;-76
2023/04/04 10:03:15;;;;;;;4.23;3.83;;;;;;;4.54;50.99;152528.13;5061750;28;20461;-76
2023/04/04 10:05:42;;;;;;;3.70;3.40;;;;;;;4.81;50.26;152597.72;5094758;28;20533;-76
2023/04/04 10:08:17;;;;;;;4.00;3.57;;;;;;;4.86;49.88;152611.91;5074344;28;20555;-76
2023/04/04 10:10:48;;;;;;;9.13;3.63;;;;;;;4.89;49.74;152619.66;5078928;28;20457;-76
2023/04/04 10:13:23;;;;;;;6.47;3.40;;;;;;;4.65;49.71;152557.78;5076585;28;21004;-76
2023/04/04 10:15:49;;;;;;;4.57;3.57;;;;;;;4.55;50.43;152532.03;5099172;28;20480;-76
2023/04/04 10:18:16;;;;;;;4.40;3.20;;;;;;;4.64;50.25;152553.91;5088520;28;20536;-76
2023/04/04 10:20:43;;;;;;;5.13;3.97;;;;;;;4.56;51.02;152534.59;5103883;28;20452;-76
2023/04/04 10:23:10;;;;;;;4.20;3.23;;;;;;;4.82;50.99;152600.28;5103270;28;20461;-76
2023/04/04 10:25:38;;;;;;;6.60;4.10;;;;;;;4.85;49.61;152608.03;5087248;28;20502;-76
2023/04/04 10:28:05;;;;;;;3.80;3.17;;;;;;;4.65;49.50;152557.78;5086394;28;20843;-75
2023/04/04 10:30:38;;;;;;;4.47;3.50;;;;;;;4.53;49.73;152526.84;5087849;28;20464;-77
2023/04/04 10:33:07;;;;;;;5.00;3.63;;;;;;;4.54;49.46;152529.44;5103284;28;20548;-75
2023/04/04 10:35:34;;;;;;;3.77;3.47;;;;;;;4.60;50.74;152544.91;5080338;28;20544;-75
2023/04/04 10:38:04;;;;;;;3.90;3.27;;;;;;;4.68;50.53;152565.53;5085284;28;20540;-75
2023/04/04 10:40:33;;;;;;;4.30;3.90;;;;;;;4.73;50.66;152578.41;5085867;28;20449;-76
2023/04/04 10:43:03;;;;;;;4.27;3.73;;;;;;;4.89;50.56;152619.66;5069161;28;20445;-76
2023/04/04 10:45:31;;;;;;;4.23;3.83;;;;;;;5.01;49.89;152647.97;5087585;28;20477;-76
2023/04/04 10:47:58;;;;;;;3.93;3.53;;;;;;;4.89;48.92;152618.34;5087083;28;20462;-76
2023/04/04 10:50:26;;;;;;;3.60;3.30;;;;;;;4.74;48.62;152579.66;5072749;28;20465;-76
2023/04/04 10:52:53;;;;;;;5.63;3.53;;;;;;;4.72;48.84;152575.81;5086719;28;20480;-76
2023/04/04 10:55:20;;;;;;;3.90;3.60;;;;;;;4.58;50.00;152538.47;5080168;28;20547;-75
2023/04/04 10:57:51;;;;;;;5.37;4.17;;;;;;;4.52;49.65;152524.28;5102303;28;21050;-76
2023/04/04 11:00:22;;;;;;;4.40;4.00;;;;;;;4.58;50.49;152539.72;5087288;28;20959;-76
2023/04/04 11:02:51;;;;;;;4.30;3.90;;;;;;;4.61;50.28;152547.47;5102754;28;20506;-75
2023/04/04 11:05:21;;;;;;;4.50;4.10;;;;;;;4.53;49.74;152526.84;5101502;28;20448;-76
2023/04/04 11:07:48;;;;;;;4.17;3.77;;;;;;;4.47;48.90;152510.13;5087558;28;20970;-76
2023/04/04 11:10:17;;;;;;;5.37;3.83;;;;;;;4.58;49.70;152538.47;5106408;28;20436;-76
2023/04/04 11:12:45;;;;;;;6.77;4.30;;;;;;;4.68;48.94;152564.22;5103067;28;20448;-76
2023/04/04 11:15:13;;;;;;;5.53;4.37;;;;;;;4.77;51.10;152588.69;5068751;28;20517;-76
2023/04/04 11:18:06;;;;;;;5.17;4.10;;;;;;;4.90;49.62;152622.19;5085891;28;20441;-76
2023/04/04 11:20:35;;;;;;;5.77;4.00;;;;;;;5.12;48.50;152677.63;5082136;28;20441;-76
2023/04/04 11:23:03;;;;;;;3.10;2.80;;;;;;;5.28;48.70;152717.59;5087368;28;20504;-76
2023/04/04 11:25:35;;;;;;;6.10;3.77;;;;;;;5.27;48.55;152715.03;5105783;28;20450;-75
2023/04/04 11:28:26;;;;;;;4.23;3.57;;;;;;;5.24;47.16;152707.28;5070455;28;20950;-75
2023/04/04 11:31:27;;;;;;;4.10;3.70;;;;;;;5.15;47.97;152684.06;5101291;27;20469;-75
2023/04/04 11:33:58;;;;;;;4.47;3.60;;;;;;;5.15;48.12;152684.06;5108552;28;20529;-76
2023/04/04 11:36:49;;;;;;;4.47;3.93;;;;;;;5.24;47.77;152707.28;5089123;28;20457;-75
2023/04/04 11:39:24;;;;;;;3.80;3.43;;;;;;;5.20;47.13;152696.94;5091983;28;20551;-75
2023/04/04 11:41:53;;;;;;;4.87;3.70;;;;;;;5.24;47.86;152707.28;5088746;28;20483;-75
2023/04/04 11:44:21;;;;;;;4.50;3.40;;;;;;;5.31;48.06;152726.63;5101070;28;20536;-77
2023/04/04 11:46:48;;;;;;;3.97;3.57;;;;;;;5.17;47.50;152689.22;5087914;28;20521;-75
2023/04/04 11:49:16;;;;;;;5.07;4.03;;;;;;;5.27;47.00;152715.03;5073129;28;20453;-78
2023/04/04 11:51:43;;;;;;;7.30;5.37;;;;;;;5.22;47.39;152702.09;5089042;28;21013;-76
2023/04/04 11:54:14;;;;;;;9.40;6.53;;;;;;;5.20;46.26;152698.25;5110961;28;20510;-77
2023/04/04 11:56:43;;;;;;;4.40;3.73;;;;;;;5.17;46.27;152690.50;5082551;28;20518;-77
2023/04/04 11:59:11;;;;;;;5.43;4.70;;;;;;;5.19;47.71;152694.41;5089086;28;20959;-77
2023/04/04 12:01:38;;;;;;;4.97;3.97;;;;;;;5.19;45.28;152695.66;5108790;27;20442;-76
2023/04/04 12:04:05;;;;;;;3.93;3.10;;;;;;;5.28;45.89;152718.88;5090581;28;20504;-77
2023/04/04 12:06:34;;;;;;;3.30;3.00;;;;;;;5.43;45.83;152756.25;5108123;28;20580;-77
2023/04/04 12:09:02;;;;;;;5.37;3.90;;;;;;;5.32;45.97;152729.16;5105782;28;20452;-76
2023/04/04 12:11:30;;;;;;;4.90;3.93;;;;;;;5.48;45.92;152769.19;5091223;28;20468;-77
2023/04/04 12:13:57;;;;;;;5.57;3.93;;;;;;;5.55;45.06;152787.22;5088321;28;20476;-77
2023/04/04 12:16:24;;;;;;;5.10;4.40;;;;;;;5.40;45.65;152748.56;5094580;28;20470;-76
2023/04/04 12:18:51;;;;;;;4.40;3.87;;;;;;;5.42;45.43;152753.69;5070603;28;20515;-77
2023/04/04 12:25:20;;;;;;;5.53;3.47;;;;;;;5.70;46.25;152824.59;5069031;28;20445;-77
2023/04/04 12:27:48;;;;;;;4.27;3.87;;;;;;;5.58;47.86;152794.97;5089086;28;20457;-77
2023/04/04 12:30:16;;;;;;;4.93;4.03;;;;;;;5.57;46.63;152792.38;5089156;28;20866;-77
2023/04/04 12:32:43;;;;;;;5.23;4.40;;;;;;;5.63;47.47;152807.84;5089187;28;20843;-76
2023/04/04 12:35:11;;;;;;;8.53;4.30;;;;;;;5.73;46.67;152833.63;5070530;28;20540;-77
2023/04/04 12:37:38;;;;;;;4.03;3.57;;;;;;;5.73;46.26;152833.63;5070533;28;20831;-76
2023/04/04 12:40:06;;;;;;;4.60;3.80;;;;;;;5.63;44.91;152806.56;5055192;28;20863;-77
2023/04/04 12:42:34;;;;;;;8.03;4.30;;;;;;;5.67;45.73;152818.16;5071603;28;21026;-77